createdAt,value
2019-04-07T00:01:28.406Z,42.37
2019-04-07T00:03:58.997Z,42.60
2019-04-07T00:06:29.452Z,42.27
2019-04-07T00:08:59.407Z,43.73
2019-04-07T00:11:29.139Z,45.27
2019-04-07T00:13:58.953Z,45.17
2019-04-07T00:16:28.703Z,44.30
2019-04-07T00:18:58.580Z,45.23
2019-04-07T00:21:28.379Z,43.13
2019-04-07T00:23:58.284Z,47.30
2019-04-07T00:26:28.133Z,45.37
2019-04-07T00:28:58.648Z,44.23
2019-04-07T00:31:28.926Z,48.93
2019-04-07T00:33:59.336Z,46.97
2019-04-07T00:36:29.120Z,47.03
2019-04-07T00:38:59.452Z,49.10
2019-04-07T00:41:29.873Z,46.83
2019-04-07T00:44:00.013Z,47.03
2019-04-07T00:46:29.777Z,48.57
2019-04-07T00:48:59.619Z,47.63
2019-04-07T00:51:29.377Z,47.60
2019-04-07T00:53:59.737Z,47.03
2019-04-07T00:56:30.054Z,47.77
2019-04-07T00:58:59.990Z,49.77
2019-04-07T01:01:29.807Z,49.47
2019-04-07T01:03:59.893Z,49.03
2019-04-07T01:06:29.789Z,50.63
2019-04-07T01:09:00.248Z,47.93
2019-04-07T01:11:30.032Z,49.57
2019-04-07T01:13:59.808Z,48.87
2019-04-07T01:16:30.061Z,51.77
2019-04-07T01:18:59.942Z,48.17
2019-04-07T01:21:30.302Z,49.57
2019-04-07T01:24:00.132Z,49.83
2019-04-07T01:26:29.891Z,47.27
2019-04-07T01:29:00.212Z,45.10
2019-04-07T01:31:29.986Z,47.43
2019-04-07T01:33:59.755Z,45.53
2019-04-07T01:36:29.567Z,45.13
2019-04-07T01:38:59.975Z,46.20
2019-04-07T01:41:37.410Z,47.43
2019-04-07T01:44:24.376Z,45.83
2019-04-07T01:46:56.052Z,43.07
2019-04-07T01:49:45.440Z,43.63
2019-04-07T01:52:17.311Z,44.70
2019-04-07T01:55:04.902Z,43.40
2019-04-07T01:57:36.417Z,43.90
2019-04-07T02:00:11.581Z,43.87
2019-04-07T02:02:42.952Z,44.33
2019-04-07T02:05:30.895Z,44.00
2019-04-07T02:08:11.152Z,44.60
2019-04-07T02:10:48.476Z,43.80
2019-04-07T02:13:20.717Z,44.03
2019-04-07T02:16:09.200Z,42.70
2019-04-07T02:18:40.727Z,44.43
2019-04-07T02:21:23.915Z,41.37
2019-04-07T02:23:55.947Z,44.47
2019-04-07T02:26:30.170Z,45.07
2019-04-07T02:29:08.023Z,44.83
2019-04-07T02:31:42.364Z,44.17
2019-04-07T02:34:20.700Z,44.50
2019-04-07T02:37:08.552Z,43.30
2019-04-07T02:39:40.740Z,44.47
2019-04-07T02:42:25.083Z,45.20
2019-04-07T02:45:09.077Z,46.43
2019-04-07T02:47:43.461Z,43.73
2019-04-07T02:50:18.021Z,45.23
2019-04-07T02:53:07.633Z,45.03
2019-04-07T02:55:55.418Z,44.03
2019-04-07T02:58:32.851Z,45.00
2019-04-07T03:01:04.400Z,46.00
2019-04-07T03:03:51.138Z,45.17
2019-04-07T03:06:40.432Z,45.47
2019-04-07T03:09:11.007Z,46.13
2019-04-07T03:11:42.831Z,44.57
2019-04-07T03:14:14.454Z,43.83
2019-04-07T03:17:02.408Z,43.70
2019-04-07T03:19:46.740Z,46.10
2019-04-07T03:22:21.097Z,45.07
2019-04-07T03:25:08.812Z,45.40
2019-04-07T03:27:57.297Z,46.40
2019-04-07T03:30:45.346Z,44.53
2019-04-07T03:33:22.689Z,44.83
2019-04-07T03:36:01.769Z,46.33
2019-04-07T03:38:41.060Z,43.90
2019-04-07T03:41:29.006Z,44.37
2019-04-07T03:44:07.713Z,42.83
2019-04-07T03:46:48.237Z,44.37
2019-04-07T03:49:20.083Z,45.57
2019-04-07T03:52:04.676Z,45.37
2019-04-07T03:54:46.555Z,46.10
2019-04-07T03:57:18.077Z,47.47
2019-04-07T04:00:05.978Z,44.73
2019-04-07T04:02:41.001Z,45.27
2019-04-07T04:05:18.942Z,44.00
2019-04-07T04:07:50.422Z,46.87
2019-04-07T04:10:24.527Z,46.87
2019-04-07T04:12:56.599Z,45.30
2019-04-07T04:15:40.294Z,46.83
2019-04-07T04:18:10.091Z,46.27
2019-04-07T04:20:40.802Z,45.80
2019-04-07T04:23:11.619Z,46.70
2019-04-07T04:25:42.904Z,46.17
2019-04-07T04:28:12.945Z,49.00
2019-04-07T04:30:42.693Z,49.33
2019-04-07T04:33:12.568Z,49.33
2019-04-07T04:35:42.839Z,47.93
2019-04-07T04:38:12.664Z,48.80
2019-04-07T04:40:42.772Z,51.13
2019-04-07T04:43:13.744Z,48.43
2019-04-07T04:45:43.800Z,48.20
2019-04-07T04:48:13.784Z,48.53
2019-04-07T04:50:44.001Z,50.93
2019-04-07T04:53:13.897Z,52.17
2019-04-07T04:55:43.965Z,49.60
2019-04-07T04:58:13.847Z,50.77
2019-04-07T05:00:44.541Z,48.40
2019-04-07T05:03:14.973Z,51.07
2019-04-07T05:05:45.670Z,49.57
2019-04-07T05:08:16.213Z,51.50
2019-04-07T05:10:46.012Z,50.33
2019-04-07T05:13:16.022Z,49.27
2019-04-07T05:15:45.981Z,48.83
2019-04-07T05:18:16.578Z,48.90
2019-04-07T05:20:46.424Z,50.23
2019-04-07T05:23:16.258Z,48.27
2019-04-07T05:25:45.991Z,50.07
2019-04-07T05:28:15.758Z,50.53
2019-04-07T05:30:46.898Z,50.77
2019-04-07T05:33:16.701Z,50.93
2019-04-07T05:35:46.434Z,50.20
2019-04-07T05:38:16.316Z,50.73
2019-04-07T05:40:46.300Z,51.27
2019-04-07T05:43:16.198Z,47.40
2019-04-07T05:45:46.400Z,51.13
2019-04-07T05:48:18.513Z,50.03
2019-04-07T05:50:48.740Z,49.47
2019-04-07T05:53:19.016Z,47.63
2019-04-07T05:55:50.094Z,48.73
2019-04-07T05:58:21.180Z,48.27
2019-04-07T06:00:50.939Z,48.87
2019-04-07T06:03:20.783Z,47.63
2019-04-07T06:05:51.303Z,45.77
2019-04-07T06:08:29.454Z,46.67
2019-04-07T06:10:56.817Z,44.13
2019-04-07T06:13:24.735Z,43.03
2019-04-07T06:15:54.982Z,38.73
2019-04-07T06:18:24.953Z,39.33
2019-04-07T06:20:54.766Z,39.27
2019-04-07T06:23:26.006Z,37.13
2019-04-07T06:25:58.984Z,36.17
2019-04-07T06:28:28.136Z,36.43
2019-04-07T06:31:00.263Z,37.00
2019-04-07T06:33:29.846Z,38.47
2019-04-07T06:36:00.450Z,36.97
2019-04-07T06:38:34.172Z,38.47
2019-04-07T06:41:02.999Z,37.63
2019-04-07T06:43:35.171Z,37.73
2019-04-07T06:46:27.071Z,36.87
2019-04-07T06:49:11.273Z,37.17
2019-04-07T06:51:55.712Z,40.47
2019-04-07T06:54:37.848Z,39.30
2019-04-07T06:57:25.503Z,40.60
2019-04-07T07:00:02.532Z,40.87
2019-04-07T07:02:36.838Z,40.90
2019-04-07T07:05:14.418Z,41.20
2019-04-07T07:07:49.749Z,40.23
2019-04-07T07:10:29.064Z,41.53
2019-04-07T07:13:02.868Z,41.83
2019-04-07T07:15:49.449Z,41.07
2019-04-07T07:18:22.911Z,40.43
2019-04-07T07:20:53.918Z,42.23
2019-04-07T07:23:28.630Z,39.17
2019-04-07T07:26:00.883Z,41.57
2019-04-07T07:28:29.945Z,38.40
2019-04-07T07:31:00.076Z,38.63
2019-04-07T07:33:29.810Z,38.90
2019-04-07T07:35:59.684Z,38.93
2019-04-07T07:38:32.115Z,38.27
2019-04-07T07:41:02.648Z,38.43
2019-04-07T07:43:32.499Z,38.30
2019-04-07T07:46:03.096Z,38.37
2019-04-07T07:48:32.935Z,37.07
2019-04-07T07:51:03.978Z,37.03
2019-04-07T07:53:33.878Z,36.73
2019-04-07T07:56:08.436Z,35.93
2019-04-07T07:58:35.542Z,35.63
2019-04-07T08:01:05.536Z,35.20
2019-04-07T08:03:36.043Z,38.10
2019-04-07T08:06:08.248Z,34.27
2019-04-07T08:08:37.999Z,34.57
2019-04-07T08:11:07.749Z,35.10
2019-04-07T08:13:43.528Z,34.17
2019-04-07T08:16:09.759Z,32.63
2019-04-07T08:18:43.525Z,33.83
2019-04-07T08:21:12.477Z,34.10
2019-04-07T08:23:44.607Z,33.17
2019-04-07T08:26:14.670Z,32.60
2019-04-07T08:28:45.053Z,33.17
2019-04-07T08:31:17.711Z,32.97
2019-04-07T08:33:48.178Z,31.60
2019-04-07T08:36:18.301Z,32.03
2019-04-07T08:38:51.761Z,32.47
2019-04-07T08:41:19.544Z,31.17
2019-04-07T08:43:53.242Z,27.63
2019-04-07T08:46:20.731Z,29.57
2019-04-07T08:48:54.270Z,28.60
2019-04-07T08:51:24.208Z,31.47
2019-04-07T08:53:57.441Z,30.47
2019-04-07T08:56:27.771Z,29.23
2019-04-07T08:58:57.930Z,29.80
2019-04-07T09:01:29.615Z,29.03
2019-04-07T09:03:59.833Z,27.90
2019-04-07T09:06:30.381Z,25.43
2019-04-07T09:09:00.424Z,32.93
2019-04-07T09:11:30.412Z,33.60
2019-04-07T09:14:00.271Z,31.13
2019-04-07T09:16:34.408Z,28.67
2019-04-07T09:19:23.923Z,29.03
2019-04-07T09:22:10.553Z,29.27
2019-04-07T09:24:45.119Z,30.33
2019-04-07T09:27:19.397Z,30.27
2019-04-07T09:30:10.082Z,30.37
2019-04-07T09:32:41.673Z,30.43
2019-04-07T09:35:29.782Z,29.40
2019-04-07T09:38:01.974Z,29.67
2019-04-07T09:40:39.385Z,32.00
2019-04-07T09:43:13.999Z,31.17
2019-04-07T09:45:52.901Z,31.77
2019-04-07T09:48:33.516Z,34.53
2019-04-07T09:51:20.926Z,32.30
2019-04-07T09:53:52.323Z,34.13
2019-04-07T09:56:33.645Z,33.93
2019-04-07T09:59:20.330Z,34.17
2019-04-07T10:02:00.933Z,32.83
2019-04-07T10:04:38.538Z,33.57
2019-04-07T10:07:25.867Z,32.67
2019-04-07T10:10:12.363Z,35.13
2019-04-07T10:12:39.272Z,34.30
2019-04-07T10:15:27.215Z,33.47
2019-04-07T10:17:58.809Z,33.27
2019-04-07T10:20:48.002Z,33.10
2019-04-07T10:23:21.982Z,32.47
2019-04-07T10:25:56.154Z,32.87
2019-04-07T10:28:33.479Z,33.77
2019-04-07T10:31:21.006Z,36.20
2019-04-07T10:33:56.258Z,33.37
2019-04-07T10:36:40.666Z,34.30
2019-04-07T10:39:27.558Z,34.80
2019-04-07T10:42:05.464Z,33.67
2019-04-07T10:44:43.389Z,34.80
2019-04-07T10:47:18.378Z,36.13
2019-04-07T10:50:06.215Z,35.40
2019-04-07T10:52:51.325Z,35.33
2019-04-07T10:55:22.723Z,37.03
2019-04-07T10:58:10.614Z,35.87
2019-04-07T11:00:50.648Z,35.37
2019-04-07T11:03:32.948Z,36.23
2019-04-07T11:06:13.762Z,36.10
2019-04-07T11:08:45.545Z,37.13
2019-04-07T11:11:23.176Z,36.57
2019-04-07T11:14:04.613Z,37.47
2019-04-07T11:16:45.278Z,39.20
2019-04-07T11:19:19.899Z,37.27
2019-04-07T11:21:51.698Z,38.40
2019-04-07T11:24:23.947Z,37.83
2019-04-07T11:26:55.911Z,37.30
2019-04-07T11:29:40.043Z,37.93
2019-04-07T11:32:26.989Z,35.50
2019-04-07T11:34:58.548Z,36.07
2019-04-07T11:37:36.463Z,36.43
2019-04-07T11:40:14.599Z,35.67
2019-04-07T11:42:49.004Z,36.30
2019-04-07T11:45:36.753Z,36.40
2019-04-07T11:48:25.830Z,36.83
2019-04-07T11:51:03.484Z,38.03
2019-04-07T11:53:39.403Z,34.40
2019-04-07T11:56:20.697Z,36.27
2019-04-07T11:59:09.130Z,34.33
2019-04-07T12:01:49.717Z,34.97
2019-04-07T12:04:38.575Z,35.60
2019-04-07T12:07:20.238Z,30.67
2019-04-07T12:09:58.457Z,32.00
2019-04-07T12:12:47.383Z,30.07
2019-04-07T12:15:26.873Z,26.47
2019-04-07T12:18:00.327Z,26.77
2019-04-07T12:20:48.315Z,26.30
2019-04-07T12:23:23.322Z,26.30
2019-04-07T12:25:52.967Z,27.30
2019-04-07T12:28:33.415Z,27.10
2019-04-07T12:31:05.385Z,25.97
2019-04-07T12:33:52.781Z,27.30
2019-04-07T12:36:30.222Z,25.30
2019-04-07T12:38:57.570Z,25.40
2019-04-07T12:41:35.774Z,25.27
2019-04-07T12:44:10.471Z,25.63
2019-04-07T12:46:41.890Z,25.27
2019-04-07T12:49:19.191Z,23.37
2019-04-07T12:51:55.878Z,23.53
2019-04-07T12:54:26.737Z,23.90
2019-04-07T12:57:06.237Z,20.90
2019-04-07T12:59:51.384Z,21.20
2019-04-07T13:02:25.845Z,21.70
2019-04-07T13:05:07.656Z,22.57
2019-04-07T13:07:51.021Z,21.03
2019-04-07T13:10:34.373Z,22.37
2019-04-07T13:13:06.917Z,21.20
2019-04-07T13:15:57.103Z,21.70
2019-04-07T13:18:31.413Z,19.53
2019-04-07T13:21:04.375Z,21.20
2019-04-07T13:23:38.564Z,21.17
2019-04-07T13:26:16.467Z,22.23
2019-04-07T13:28:50.869Z,21.97
2019-04-07T13:31:22.397Z,23.23
2019-04-07T13:34:01.060Z,20.77
2019-04-07T13:36:41.892Z,22.47
2019-04-07T13:39:36.634Z,22.23
2019-04-07T13:42:07.754Z,21.50
2019-04-07T13:44:48.414Z,22.37
2019-04-07T13:47:23.167Z,21.13
2019-04-07T13:49:57.322Z,24.07
2019-04-07T13:52:27.892Z,23.20
2019-04-07T13:55:07.512Z,23.50
2019-04-07T13:57:40.560Z,23.10
2019-04-07T14:00:17.136Z,23.73
2019-04-07T14:03:04.815Z,23.40
2019-04-07T14:05:38.857Z,22.53
2019-04-07T14:08:10.268Z,22.97
2019-04-07T14:10:58.305Z,23.63
2019-04-07T14:13:40.724Z,24.93
2019-04-07T14:16:17.623Z,24.97
2019-04-07T14:19:07.713Z,24.87
2019-04-07T14:21:39.638Z,24.07
2019-04-07T14:24:13.980Z,24.57
2019-04-07T14:26:48.938Z,24.37
2019-04-07T14:29:20.525Z,23.83
2019-04-07T14:31:55.515Z,24.53
2019-04-07T14:34:27.312Z,25.90
2019-04-07T14:36:59.050Z,24.00
2019-04-07T14:39:39.450Z,23.00
2019-04-07T14:42:16.470Z,22.53
2019-04-07T14:44:51.171Z,23.47
2019-04-07T14:47:32.383Z,22.80
2019-04-07T14:50:13.110Z,23.27
2019-04-07T14:52:44.776Z,21.90
2019-04-07T14:55:34.562Z,23.37
2019-04-07T14:58:19.018Z,21.87
2019-04-07T15:01:01.820Z,21.17
2019-04-07T15:03:28.658Z,21.93
2019-04-07T15:05:59.613Z,22.27
2019-04-07T15:08:34.353Z,22.37
2019-04-07T15:11:24.960Z,23.73
2019-04-07T15:13:58.740Z,21.70
2019-04-07T15:16:26.412Z,22.10
2019-04-07T15:18:56.638Z,22.07
2019-04-07T15:21:27.362Z,22.80
2019-04-07T15:23:57.319Z,21.57
2019-04-07T15:26:29.302Z,22.53
2019-04-07T15:29:02.425Z,22.60
2019-04-07T15:31:30.917Z,24.30
2019-04-07T15:34:00.971Z,24.23
2019-04-07T15:36:32.155Z,24.10
2019-04-07T15:39:02.050Z,25.30
2019-04-07T15:41:32.669Z,24.83
2019-04-07T15:44:06.225Z,25.43
2019-04-07T15:46:34.429Z,24.30
2019-04-07T15:49:06.484Z,24.97
2019-04-07T15:51:36.238Z,26.60
2019-04-07T15:54:06.217Z,26.13
2019-04-07T15:56:36.798Z,24.90
2019-04-07T15:59:07.553Z,25.53
2019-04-07T16:01:38.729Z,25.63
2019-04-07T16:04:09.601Z,26.33
2019-04-07T16:06:39.461Z,26.47
2019-04-07T16:09:16.664Z,25.47
2019-04-07T16:11:41.317Z,25.07
2019-04-07T16:14:13.631Z,26.67
2019-04-07T16:16:42.643Z,28.00
2019-04-07T16:19:17.593Z,27.43
2019-04-07T16:21:44.328Z,26.83
2019-04-07T16:24:14.021Z,26.70
2019-04-07T16:26:44.381Z,27.80
2019-04-07T16:29:17.540Z,27.17
2019-04-07T16:31:46.637Z,26.20
2019-04-07T16:34:16.624Z,27.57
2019-04-07T16:36:46.561Z,27.87
2019-04-07T16:39:16.201Z,28.27
2019-04-07T16:41:48.221Z,27.03
2019-04-07T16:44:17.466Z,28.17
2019-04-07T16:46:47.252Z,27.17
2019-04-07T16:49:18.887Z,27.90
2019-04-07T16:51:49.309Z,27.70
2019-04-07T16:54:28.711Z,30.30
2019-04-07T16:56:58.760Z,27.97
2019-04-07T16:59:28.537Z,26.00
2019-04-07T17:01:59.114Z,26.33
2019-04-07T17:04:29.987Z,26.77
2019-04-07T17:07:04.103Z,27.17
2019-04-07T17:09:33.445Z,27.57
2019-04-07T17:12:03.551Z,27.23
2019-04-07T17:14:36.041Z,27.83
2019-04-07T17:17:05.863Z,28.73
2019-04-07T17:19:35.924Z,29.43
2019-04-07T17:22:05.835Z,28.27
2019-04-07T17:24:35.678Z,29.33
2019-04-07T17:27:09.205Z,28.00
2019-04-07T17:29:37.014Z,28.23
2019-04-07T17:32:08.079Z,29.43
2019-04-07T17:34:41.763Z,27.30
2019-04-07T17:37:09.657Z,29.50
2019-04-07T17:39:57.290Z,28.77
2019-04-07T17:42:28.324Z,29.00
2019-04-07T17:45:03.341Z,27.93
2019-04-07T17:47:36.483Z,27.93
2019-04-07T17:50:12.861Z,29.23
2019-04-07T17:53:00.486Z,31.30
2019-04-07T17:55:34.412Z,31.03
2019-04-07T17:58:22.228Z,31.10
2019-04-07T18:00:59.752Z,30.53
2019-04-07T18:03:31.409Z,28.97
2019-04-07T18:06:16.880Z,30.63
2019-04-07T18:09:03.401Z,29.60
2019-04-07T18:11:32.928Z,30.37
2019-04-07T18:14:16.944Z,29.93
2019-04-07T18:16:54.789Z,32.10
2019-04-07T18:19:33.855Z,31.73
2019-04-07T18:22:23.521Z,31.43
2019-04-07T18:25:04.914Z,31.33
2019-04-07T18:27:36.632Z,30.17
2019-04-07T18:30:21.352Z,30.33
2019-04-07T18:32:55.758Z,30.93
2019-04-07T18:35:30.872Z,30.67
2019-04-07T18:38:17.329Z,28.90
2019-04-07T18:41:10.098Z,30.07
2019-04-07T18:44:00.750Z,28.90
2019-04-07T18:46:29.030Z,29.33
2019-04-07T18:49:03.234Z,29.10
2019-04-07T18:51:50.620Z,28.97
2019-04-07T18:54:22.713Z,31.33
2019-04-07T18:56:58.956Z,30.37
2019-04-07T18:59:35.012Z,31.37
2019-04-07T19:02:23.442Z,30.03
2019-04-07T19:04:58.927Z,30.27
2019-04-07T19:07:41.656Z,29.23
2019-04-07T19:10:29.616Z,29.97
2019-04-07T19:13:14.215Z,28.93
2019-04-07T19:15:47.550Z,30.57
2019-04-07T19:18:27.198Z,29.93
2019-04-07T19:21:18.336Z,30.93
2019-04-07T19:24:10.329Z,31.77
2019-04-07T19:27:11.850Z,31.23
2019-04-07T19:29:43.067Z,32.53
2019-04-07T19:32:21.038Z,30.93
2019-04-07T19:34:53.138Z,31.90
2019-04-07T19:37:26.288Z,31.87
2019-04-07T19:40:10.026Z,34.10
2019-04-07T19:43:01.731Z,32.40
2019-04-07T19:45:33.346Z,32.50
2019-04-07T19:48:19.975Z,31.63
2019-04-07T19:50:58.598Z,31.80
2019-04-07T19:53:45.837Z,32.70
2019-04-07T19:56:19.194Z,33.60
2019-04-07T19:58:53.609Z,34.30
2019-04-07T20:01:27.456Z,33.47
2019-04-07T20:04:05.320Z,34.47
2019-04-07T20:06:39.814Z,33.47
2019-04-07T20:09:12.683Z,36.63
2019-04-07T20:11:48.010Z,35.30
2019-04-07T20:17:17.377Z,35.77
2019-04-07T20:19:55.642Z,35.13
2019-04-07T20:22:43.673Z,36.03
2019-04-07T20:25:21.139Z,36.37
2019-04-07T20:27:56.028Z,35.80
2019-04-07T20:30:45.575Z,34.97
2019-04-07T20:33:29.930Z,36.23
2019-04-07T20:36:02.742Z,37.00
2019-04-07T20:38:34.135Z,36.73
2019-04-07T20:41:10.372Z,35.77
2019-04-07T20:43:55.608Z,36.67
2019-04-07T20:46:36.358Z,37.23
2019-04-07T20:49:20.133Z,36.10
2019-04-07T20:51:58.467Z,37.17
2019-04-07T20:54:35.850Z,36.73
2019-04-07T20:57:19.241Z,37.57
2019-04-07T21:00:05.582Z,38.03
2019-04-07T21:02:37.740Z,36.90
2019-04-07T21:05:12.370Z,37.73
2019-04-07T21:08:01.057Z,36.30
2019-04-07T21:10:41.500Z,35.83
2019-04-07T21:13:30.096Z,37.63
2019-04-07T21:16:08.222Z,37.57
2019-04-07T21:18:56.442Z,35.03
2019-04-07T21:21:34.591Z,35.40
2019-04-07T21:24:06.514Z,36.70
2019-04-07T21:26:37.895Z,38.77
2019-04-07T21:29:16.085Z,40.17
2019-04-07T21:31:47.931Z,40.33
2019-04-07T21:34:20.765Z,39.70
2019-04-07T21:37:01.224Z,39.97
2019-04-07T21:39:33.128Z,40.37
2019-04-07T21:42:05.039Z,38.90
2019-04-07T21:44:42.161Z,39.57
2019-04-07T21:47:29.841Z,39.10
2019-04-07T21:50:18.935Z,38.50
2019-04-07T21:53:06.627Z,38.13
2019-04-07T21:55:43.079Z,37.60
2019-04-07T21:58:14.518Z,39.67
2019-04-07T22:01:05.232Z,39.50
2019-04-07T22:03:52.409Z,39.90
2019-04-07T22:06:26.530Z,38.67
2019-04-07T22:08:58.055Z,41.47
2019-04-07T22:11:30.268Z,41.37
2019-04-07T22:14:00.997Z,42.27
2019-04-07T22:16:32.735Z,43.70
2019-04-07T22:19:02.358Z,41.30
2019-04-07T22:21:32.198Z,40.27
2019-04-07T22:24:03.000Z,40.80
2019-04-07T22:26:33.604Z,37.03
2019-04-07T22:29:05.212Z,41.00
2019-04-07T22:31:36.722Z,40.87
2019-04-07T22:34:06.912Z,41.17
2019-04-07T22:36:36.721Z,44.70
2019-04-07T22:39:07.787Z,44.10
2019-04-07T22:41:41.113Z,45.30
2019-04-07T22:44:09.248Z,41.67
2019-04-07T22:46:39.591Z,44.40
2019-04-07T22:49:09.452Z,45.00
2019-04-07T22:51:43.079Z,47.48
2019-04-07T22:54:16.840Z,45.13
2019-04-07T22:56:46.741Z,47.03
2019-04-07T22:59:17.505Z,47.23
2019-04-07T23:01:47.386Z,43.97
2019-04-07T23:04:18.186Z,43.83
2019-04-07T23:06:48.140Z,43.60
2019-04-07T23:09:17.869Z,46.87
2019-04-07T23:11:48.256Z,47.93
2019-04-07T23:14:18.006Z,44.37
2019-04-07T23:16:48.548Z,44.40
2019-04-07T23:19:18.554Z,45.83
2019-04-07T23:21:49.127Z,46.97
2019-04-07T23:24:19.277Z,49.23
2019-04-07T23:26:49.120Z,50.03
2019-04-07T23:29:20.190Z,49.83
2019-04-07T23:31:49.948Z,46.33
2019-04-07T23:34:19.709Z,47.00
2019-04-07T23:36:49.873Z,49.23
2019-04-07T23:39:19.670Z,48.23
2019-04-07T23:41:49.375Z,48.03
2019-04-07T23:44:19.124Z,47.30
2019-04-07T23:46:48.976Z,45.53
2019-04-07T23:49:19.112Z,44.47
2019-04-07T23:55:10.564Z,40.90
2019-04-07T23:57:40.538Z,39.60
